Palmyra, Michigan
Current Conditions -  °F | °C
As of 2:53 PM on Wednesday 28 Jan 2015 (Local Time) from KADG Reporting Station
Clear Clear  
Wind Chill: 16°   Ceiling: Unl
Heat Index: 25°   Visibility: 10mi
Dew Point: 13°   Wind: 9mph
Humidity: 60%   Direction: 190°S
Pressure: 30.28"   Gusts: NA
Location:  41.86°N, 83.94°W
Report Text: KADG 281953Z AUTO 19008KT 10SM CLR M04/M11 A3028 RMK AO2 SLP271 T10391106
Loading
Personal Weather Stations






























Interactive Weather Map New forecast layout! Learn more

10-Day Weather Forecast

Advertisements
Track Severe Weather on mobile